Time;durP1;ratioP1;P1;durP2;ratioP2;P2;SDS_P1;SDS_P2;PMS_P1;PMS_P2;Temp;Humidity;BMP_temperature;BMP_pressure;BME280_temperature;BME280_humidity;BME280_pressure;Samples;Min_cycle;Max_cycle;Signal;HPM_P1;HPM_P2
2023/11/25 00:00:09;;;;;;;0.90;0.10;;;7.20;82.80;;;;;;4990814;28;20045;-75
2023/11/25 00:02:35;;;;;;;0.10;0.00;;;7.40;81.10;;;;;;4994680;28;20049;-75
2023/11/25 00:05:01;;;;;;;0.00;0.00;;;7.30;81.80;;;;;;4993411;28;20046;-75
2023/11/25 00:07:28;;;;;;;0.20;0.10;;;7.00;81.70;;;;;;4992962;28;20762;-75
2023/11/25 00:09:54;;;;;;;0.35;0.00;;;7.10;82.00;;;;;;4995173;28;20084;-75
2023/11/25 00:12:20;;;;;;;0.77;0.10;;;6.80;83.50;;;;;;4992676;28;20548;-75
2023/11/25 00:14:45;;;;;;;0.10;0.00;;;6.80;82.00;;;;;;4993226;28;20524;-75
2023/11/25 00:17:11;;;;;;;0.03;0.00;;;6.70;85.20;;;;;;4995020;28;20376;-75
2023/11/25 00:19:37;;;;;;;0.90;0.10;;;6.40;86.80;;;;;;4993494;28;20092;-75
2023/11/25 00:22:02;;;;;;;0.00;0.00;;;6.50;87.40;;;;;;4994868;28;20041;-75
2023/11/25 00:24:28;;;;;;;0.25;0.00;;;6.50;87.60;;;;;;4993305;28;20359;-75
2023/11/25 00:26:54;;;;;;;0.68;0.15;;;6.50;87.80;;;;;;4993397;28;20428;-76
2023/11/25 00:29:19;;;;;;;0.47;0.15;;;6.40;88.70;;;;;;4992932;28;20404;-75
2023/11/25 00:31:52;;;;;;;0.00;0.00;;;6.20;90.10;;;;;;4992915;28;20066;-75
2023/11/25 00:34:18;;;;;;;0.47;0.17;;;5.90;89.80;;;;;;4993184;28;20069;-75
2023/11/25 00:36:44;;;;;;;0.15;0.00;;;5.80;89.40;;;;;;4994303;28;20480;-75
2023/11/25 00:39:11;;;;;;;0.20;0.10;;;5.60;90.30;;;;;;4992869;28;20101;-75
2023/11/25 00:41:38;;;;;;;0.30;0.08;;;5.50;90.40;;;;;;4994486;28;20547;-75
2023/11/25 00:44:04;;;;;;;0.47;0.20;;;5.70;89.90;;;;;;4992750;28;20123;-75
2023/11/25 00:46:29;;;;;;;0.08;0.00;;;5.60;90.10;;;;;;4992889;28;20046;-75
2023/11/25 00:48:55;;;;;;;0.13;0.00;;;5.50;90.20;;;;;;4994257;28;20030;-75
2023/11/25 00:51:21;;;;;;;0.22;0.10;;;5.40;90.00;;;;;;4993299;28;20042;-75
2023/11/25 00:53:46;;;;;;;0.50;0.03;;;5.40;90.10;;;;;;4992087;28;20496;-75
2023/11/25 00:56:12;;;;;;;0.00;0.00;;;5.40;90.00;;;;;;4994022;28;20041;-76
2023/11/25 00:58:38;;;;;;;0.00;0.00;;;5.30;90.00;;;;;;4996436;28;20033;-75
2023/11/25 01:01:04;;;;;;;0.95;0.10;;;5.20;90.10;;;;;;4996049;28;20041;-75
2023/11/25 01:03:30;;;;;;;0.40;0.10;;;5.30;90.00;;;;;;4997619;28;20636;-76
2023/11/25 01:05:56;;;;;;;0.28;0.05;;;5.20;90.20;;;;;;4996812;28;20034;-75
2023/11/25 01:08:25;;;;;;;0.63;0.00;;;4.90;90.30;;;;;;4996720;28;20057;-75
2023/11/25 01:10:51;;;;;;;0.52;0.10;;;5.00;90.40;;;;;;4997529;28;20034;-75
2023/11/25 01:13:17;;;;;;;0.35;0.15;;;4.90;90.30;;;;;;4996503;28;20042;-75
2023/11/25 01:15:43;;;;;;;0.32;0.20;;;4.80;90.30;;;;;;4996927;28;20064;-75
2023/11/25 01:18:09;;;;;;;0.20;0.00;;;4.90;90.20;;;;;;4998597;28;20041;-76
2023/11/25 01:20:35;;;;;;;1.42;0.10;;;4.70;90.40;;;;;;4996424;28;20224;-75
2023/11/25 01:23:00;;;;;;;0.13;0.00;;;4.50;90.90;;;;;;4995675;28;20054;-75
2023/11/25 01:25:26;;;;;;;2.13;0.22;;;4.60;90.70;;;;;;4997316;28;20107;-75
2023/11/25 01:27:54;;;;;;;0.00;0.00;;;4.60;90.80;;;;;;4996260;28;20041;-75
2023/11/25 01:30:20;;;;;;;0.65;0.10;;;4.80;90.50;;;;;;4996406;28;20468;-74
2023/11/25 01:32:45;;;;;;;0.10;0.00;;;4.80;90.50;;;;;;4997604;28;20384;-75
2023/11/25 01:35:11;;;;;;;0.52;0.10;;;4.30;91.20;;;;;;4996318;28;20037;-75
2023/11/25 01:37:37;;;;;;;0.13;0.03;;;4.20;91.30;;;;;;4996076;28;20022;-75
2023/11/25 01:40:05;;;;;;;0.00;0.00;;;4.10;91.30;;;;;;4997477;28;20026;-75
2023/11/25 01:42:31;;;;;;;0.30;0.10;;;4.10;91.40;;;;;;4995674;28;20030;-75
2023/11/25 01:44:57;;;;;;;0.00;0.00;;;4.30;91.10;;;;;;4995857;28;20030;-75
2023/11/25 01:47:23;;;;;;;0.20;0.10;;;4.20;91.60;;;;;;4997643;28;20128;-75
2023/11/25 01:49:49;;;;;;;0.17;0.05;;;4.20;91.30;;;;;;4995641;28;20048;-75
2023/11/25 01:52:15;;;;;;;0.38;0.10;;;4.20;91.20;;;;;;4995255;28;20038;-75
2023/11/25 01:54:41;;;;;;;0.10;0.00;;;4.10;91.20;;;;;;4996758;28;20034;-75
2023/11/25 01:57:08;;;;;;;0.57;0.30;;;4.10;91.40;;;;;;4996362;28;20048;-75
2023/11/25 01:59:34;;;;;;;1.17;0.10;;;3.90;91.50;;;;;;4995926;28;20056;-75
2023/11/25 02:02:04;;;;;;;0.22;0.00;;;3.90;92.00;;;;;;4994648;28;20476;-75
2023/11/25 02:04:35;;;;;;;0.20;0.10;;;4.00;91.50;;;;;;4996880;28;20053;-75
2023/11/25 02:07:01;;;;;;;0.32;0.10;;;4.10;91.40;;;;;;4995692;28;20095;-75
2023/11/25 02:09:27;;;;;;;0.65;0.17;;;4.10;91.50;;;;;;4996155;28;20037;-75
2023/11/25 02:11:54;;;;;;;0.75;0.13;;;4.10;91.60;;;;;;4995903;28;20115;-75
2023/11/25 02:14:20;;;;;;;0.85;0.10;;;3.80;92.20;;;;;;4994576;28;20033;-75
2023/11/25 02:16:46;;;;;;;0.15;0.10;;;3.90;92.00;;;;;;4996040;28;20053;-75
2023/11/25 02:19:12;;;;;;;0.63;0.20;;;3.80;92.50;;;;;;4996807;28;20041;-76
2023/11/25 02:21:40;;;;;;;0.13;0.00;;;4.30;92.00;;;;;;4995102;28;20038;-75
2023/11/25 02:24:07;;;;;;;1.40;0.30;;;4.10;92.20;;;;;;4994745;28;20400;-75
2023/11/25 02:26:34;;;;;;;1.35;0.73;;;4.10;92.30;;;;;;4996297;28;20034;-75
2023/11/25 02:29:00;;;;;;;0.52;0.10;;;3.70;92.60;;;;;;4995596;28;22591;-75
2023/11/25 02:31:25;;;;;;;0.35;0.08;;;3.70;92.60;;;;;;4995609;28;20511;-75
2023/11/25 02:33:51;;;;;;;0.30;0.08;;;3.80;92.80;;;;;;4996232;28;20037;-75
2023/11/25 02:36:17;;;;;;;0.20;0.00;;;3.90;92.90;;;;;;4995010;28;20359;-75
2023/11/25 02:38:42;;;;;;;0.63;0.00;;;3.80;93.10;;;;;;4994803;28;20030;-75
2023/11/25 02:41:10;;;;;;;0.28;0.00;;;3.70;92.80;;;;;;4995115;28;20118;-75
2023/11/25 02:43:36;;;;;;;0.00;0.00;;;3.80;92.70;;;;;;4994843;28;20045;-76
2023/11/25 02:46:03;;;;;;;0.20;0.00;;;3.90;92.90;;;;;;4995461;28;20026;-75
2023/11/25 02:48:29;;;;;;;0.32;0.10;;;3.80;92.80;;;;;;4995747;28;20030;-75
2023/11/25 02:50:55;;;;;;;0.10;0.00;;;3.50;93.40;;;;;;4995354;28;20527;-75
2023/11/25 02:53:21;;;;;;;0.50;0.20;;;3.70;93.20;;;;;;4994510;28;20037;-75
2023/11/25 02:55:47;;;;;;;1.65;0.20;;;3.80;93.10;;;;;;4995559;28;20034;-75
2023/11/25 02:58:12;;;;;;;0.00;0.00;;;3.90;93.10;;;;;;4995581;28;20040;-75
2023/11/25 03:00:41;;;;;;;0.20;0.10;;;4.00;92.80;;;;;;4993995;28;20076;-75
2023/11/25 03:03:12;;;;;;;0.10;0.00;;;4.00;93.00;;;;;;4994551;28;20054;-75
2023/11/25 03:05:42;;;;;;;0.80;0.17;;;4.20;92.80;;;;;;4995598;28;20551;-75
2023/11/25 03:08:17;;;;;;;1.45;0.30;;;4.50;92.40;;;;;;4994389;28;20053;-75
2023/11/25 03:10:43;;;;;;;0.52;0.20;;;4.60;92.50;;;;;;4994187;28;20042;-75
2023/11/25 03:13:12;;;;;;;0.10;0.10;;;4.50;93.20;;;;;;4994919;28;20168;-75
2023/11/25 03:15:39;;;;;;;1.52;0.35;;;4.40;93.30;;;;;;4995323;28;20045;-75
2023/11/25 03:18:08;;;;;;;0.45;0.10;;;4.20;93.60;;;;;;4994269;28;20651;-75
2023/11/25 03:20:34;;;;;;;0.20;0.00;;;4.10;93.70;;;;;;4995737;28;20037;-75
2023/11/25 03:23:01;;;;;;;1.83;0.13;;;4.10;93.50;;;;;;4994727;28;20045;-75
2023/11/25 03:25:29;;;;;;;0.00;0.00;;;4.20;93.30;;;;;;4994645;28;20038;-75
2023/11/25 03:27:56;;;;;;;0.43;0.10;;;4.20;93.80;;;;;;4999764;28;20115;-75
2023/11/25 03:30:22;;;;;;;0.55;0.08;;;4.20;93.10;;;;;;4999041;28;20141;-75
2023/11/25 03:32:48;;;;;;;0.52;0.17;;;4.10;93.30;;;;;;4998445;28;20520;-75
2023/11/25 03:35:15;;;;;;;0.80;0.13;;;4.10;93.80;;;;;;4996395;28;20077;-75
2023/11/25 03:37:40;;;;;;;0.20;0.00;;;4.20;92.80;;;;;;4999465;28;20041;-75
2023/11/25 03:40:07;;;;;;;0.30;0.20;;;4.20;93.10;;;;;;4997793;28;20037;-75
2023/11/25 03:42:34;;;;;;;0.22;0.10;;;4.10;93.50;;;;;;4996865;28;20072;-75
2023/11/25 03:45:01;;;;;;;0.00;0.00;;;3.50;94.50;;;;;;4995640;28;20042;-75
2023/11/25 03:47:28;;;;;;;0.00;0.00;;;3.60;93.90;;;;;;4997552;28;20037;-75
2023/11/25 03:49:54;;;;;;;0.52;0.20;;;3.80;93.50;;;;;;4997424;28;20161;-75
2023/11/25 03:52:21;;;;;;;0.90;0.25;;;4.00;93.30;;;;;;4998555;28;20109;-75
2023/11/25 03:54:48;;;;;;;0.47;0.10;;;4.10;93.10;;;;;;4997099;28;20034;-75
2023/11/25 03:57:14;;;;;;;0.63;0.10;;;4.10;93.30;;;;;;4998877;28;20030;-75
2023/11/25 03:59:40;;;;;;;0.00;0.00;;;4.00;93.50;;;;;;4998864;28;20057;-75
2023/11/25 04:02:06;;;;;;;0.55;0.10;;;4.00;93.60;;;;;;4995838;28;20104;-75
2023/11/25 04:04:32;;;;;;;0.05;0.03;;;4.00;93.90;;;;;;4991143;28;20464;-75
2023/11/25 04:06:59;;;;;;;0.20;0.05;;;3.90;94.10;;;;;;4993267;28;20036;-75
2023/11/25 04:09:25;;;;;;;1.48;0.20;;;3.90;93.80;;;;;;4992944;28;21508;-75
2023/11/25 04:11:51;;;;;;;0.05;0.00;;;3.90;94.00;;;;;;4993483;28;20037;-75
2023/11/25 04:14:17;;;;;;;0.60;0.13;;;3.90;94.40;;;;;;4993306;28;20029;-75
2023/11/25 04:16:43;;;;;;;0.70;0.20;;;3.80;94.40;;;;;;4989682;28;20060;-75
2023/11/25 04:19:09;;;;;;;0.30;0.13;;;3.80;94.20;;;;;;4989384;28;20054;-75
2023/11/25 04:21:39;;;;;;;1.48;0.10;;;3.90;94.10;;;;;;4990928;28;20755;-75
2023/11/25 04:24:08;;;;;;;0.00;0.00;;;3.90;94.10;;;;;;4991909;28;20511;-75
2023/11/25 04:26:36;;;;;;;0.45;0.22;;;3.80;94.20;;;;;;4993642;28;20030;-75
2023/11/25 04:29:02;;;;;;;0.00;0.00;;;3.70;94.20;;;;;;4994580;28;20022;-75
2023/11/25 04:31:28;;;;;;;0.70;0.20;;;3.80;94.20;;;;;;4993242;28;20503;-75
2023/11/25 04:33:53;;;;;;;0.38;0.20;;;3.70;94.60;;;;;;4989780;28;20029;-75
2023/11/25 04:36:19;;;;;;;3.00;0.85;;;3.70;94.30;;;;;;4988916;28;20045;-74
2023/11/25 04:38:44;;;;;;;0.52;0.17;;;3.90;94.00;;;;;;4992012;28;21976;-75
2023/11/25 04:41:10;;;;;;;0.30;0.17;;;4.00;93.80;;;;;;4989860;28;20065;-75
2023/11/25 04:43:36;;;;;;;0.22;0.10;;;3.80;94.10;;;;;;4990220;28;20061;-75
2023/11/25 04:46:03;;;;;;;1.65;0.73;;;3.60;94.30;;;;;;4993964;28;20571;-75
2023/11/25 04:48:28;;;;;;;1.90;0.10;;;3.60;94.50;;;;;;4993297;28;20117;-75
2023/11/25 04:50:55;;;;;;;0.00;0.00;;;3.70;94.10;;;;;;4992697;28;20056;-75
2023/11/25 04:53:21;;;;;;;0.52;0.10;;;3.70;94.10;;;;;;4994129;28;20041;-75
2023/11/25 04:55:46;;;;;;;0.80;0.20;;;4.00;93.50;;;;;;4992418;28;20369;-75
2023/11/25 04:58:12;;;;;;;0.93;0.32;;;3.70;94.30;;;;;;4991551;28;20048;-75
2023/11/25 05:00:38;;;;;;;0.30;0.10;;;3.90;94.20;;;;;;4992507;28;20037;-75
2023/11/25 05:03:05;;;;;;;0.35;0.17;;;4.10;93.60;;;;;;4990713;28;20134;-75
2023/11/25 05:05:32;;;;;;;0.47;0.10;;;4.20;93.60;;;;;;4989600;28;20037;-75
2023/11/25 05:07:57;;;;;;;0.65;0.15;;;3.90;93.50;;;;;;4990659;28;20061;-75
2023/11/25 05:10:23;;;;;;;0.20;0.08;;;4.00;93.50;;;;;;4987490;28;20112;-75
2023/11/25 05:12:52;;;;;;;1.35;0.10;;;4.00;93.40;;;;;;4988387;28;20037;-75
2023/11/25 05:15:18;;;;;;;0.20;0.10;;;4.00;93.80;;;;;;4989116;28;20038;-75
2023/11/25 05:17:44;;;;;;;1.15;0.15;;;4.10;93.40;;;;;;4989793;28;20072;-75
2023/11/25 05:20:15;;;;;;;0.15;0.10;;;4.20;93.40;;;;;;4989283;28;20034;-75
2023/11/25 05:22:42;;;;;;;2.03;0.45;;;4.00;93.80;;;;;;4988637;28;20036;-75
2023/11/25 05:25:13;;;;;;;0.30;0.10;;;4.00;94.10;;;;;;4988445;28;20092;-75
2023/11/25 05:27:39;;;;;;;0.00;0.00;;;4.00;94.10;;;;;;4989100;28;20030;-75
2023/11/25 05:30:05;;;;;;;0.30;0.30;;;4.10;93.60;;;;;;4990211;28;20570;-75
2023/11/25 05:32:31;;;;;;;0.45;0.10;;;4.10;93.80;;;;;;4988341;28;21699;-75
2023/11/25 05:34:57;;;;;;;43.13;25.58;;;4.30;94.00;;;;;;4988861;28;20038;-75
2023/11/25 05:37:23;;;;;;;10.07;6.07;;;4.10;93.90;;;;;;4989133;28;20673;-75
2023/11/25 05:39:50;;;;;;;3.20;1.33;;;4.10;94.30;;;;;;4988872;28;20046;-75
2023/11/25 05:42:23;;;;;;;1.83;0.65;;;4.10;94.40;;;;;;4988570;28;20026;-75
2023/11/25 05:44:50;;;;;;;0.93;0.50;;;4.00;94.90;;;;;;4988577;28;20038;-75
2023/11/25 05:47:17;;;;;;;1.35;0.45;;;3.90;95.00;;;;;;4989049;28;20076;-75
2023/11/25 05:49:43;;;;;;;0.43;0.20;;;4.00;95.00;;;;;;4988217;28;20033;-75
2023/11/25 05:52:09;;;;;;;0.68;0.05;;;4.10;94.20;;;;;;4988002;28;20092;-75
2023/11/25 05:54:34;;;;;;;0.32;0.10;;;4.10;93.90;;;;;;4987848;28;20116;-75
2023/11/25 05:57:00;;;;;;;1.55;0.20;;;4.30;93.70;;;;;;4989263;28;20029;-75
2023/11/25 05:59:26;;;;;;;1.15;0.30;;;4.20;94.10;;;;;;4989323;28;20037;-75
2023/11/25 06:01:53;;;;;;;1.70;0.57;;;4.20;93.70;;;;;;4988260;28;20121;-75
2023/11/25 06:04:18;;;;;;;20.98;13.65;;;4.20;93.60;;;;;;4987374;28;20116;-75
2023/11/25 06:06:44;;;;;;;17.38;9.05;;;4.50;93.00;;;;;;4988135;28;20033;-75
2023/11/25 06:09:11;;;;;;;5.70;2.33;;;4.50;92.80;;;;;;4988781;28;20038;-75
2023/11/25 06:11:38;;;;;;;18.10;10.98;;;4.70;93.00;;;;;;4986925;28;20981;-75
2023/11/25 06:14:04;;;;;;;2.97;1.10;;;4.60;93.20;;;;;;4988792;28;20042;-75
2023/11/25 06:16:30;;;;;;;1.20;0.63;;;4.20;94.50;;;;;;4986230;28;20061;-75
2023/11/25 06:18:56;;;;;;;3.10;1.33;;;4.20;93.80;;;;;;4987324;28;20026;-75
2023/11/25 06:21:23;;;;;;;0.32;0.13;;;4.10;94.40;;;;;;4986137;28;20071;-75
2023/11/25 06:23:50;;;;;;;2.08;0.55;;;4.30;93.80;;;;;;4987322;28;20061;-75
2023/11/25 06:26:17;;;;;;;1.80;0.30;;;4.40;93.40;;;;;;4986620;28;20037;-75
2023/11/25 06:28:43;;;;;;;0.20;0.00;;;4.60;93.40;;;;;;4988388;28;21989;-75
2023/11/25 06:31:13;;;;;;;0.28;0.17;;;4.70;93.40;;;;;;4988540;28;20041;-75
2023/11/25 06:33:40;;;;;;;0.00;0.00;;;4.70;93.40;;;;;;4988350;28;20030;-75
2023/11/25 06:36:07;;;;;;;0.70;0.20;;;4.90;93.00;;;;;;4987825;28;20056;-75
2023/11/25 06:38:33;;;;;;;0.75;0.30;;;5.00;92.90;;;;;;4987585;28;21411;-75
2023/11/25 06:41:00;;;;;;;1.20;0.32;;;5.00;93.40;;;;;;4987363;28;20045;-75
2023/11/25 06:43:27;;;;;;;0.85;0.20;;;4.90;93.80;;;;;;4988456;28;20508;-75
2023/11/25 06:45:53;;;;;;;0.52;0.20;;;4.80;93.60;;;;;;4987518;28;20042;-75
2023/11/25 06:48:20;;;;;;;0.45;0.10;;;4.80;93.50;;;;;;4988028;28;20072;-75
2023/11/25 06:50:47;;;;;;;0.77;0.40;;;4.90;93.30;;;;;;4984485;28;20514;-75
2023/11/25 06:53:13;;;;;;;0.30;0.03;;;5.00;93.30;;;;;;4986798;28;20515;-76
2023/11/25 06:55:41;;;;;;;1.17;0.40;;;4.90;93.50;;;;;;4991266;28;20038;-76
2023/11/25 06:58:10;;;;;;;0.15;0.15;;;5.00;93.30;;;;;;4989380;28;20030;-74
2023/11/25 07:00:37;;;;;;;1.98;0.30;;;4.90;93.10;;;;;;4988242;28;20059;-76
2023/11/25 07:03:03;;;;;;;0.47;0.30;;;5.00;92.50;;;;;;4986997;28;20066;-76
2023/11/25 07:05:29;;;;;;;0.22;0.10;;;5.10;91.20;;;;;;4985446;28;20038;-76
2023/11/25 07:07:55;;;;;;;1.27;0.22;;;5.20;91.00;;;;;;4986968;28;20037;-76
2023/11/25 07:10:21;;;;;;;0.52;0.22;;;5.10;91.00;;;;;;4986448;28;20092;-76
2023/11/25 07:12:47;;;;;;;0.95;0.38;;;5.00;90.80;;;;;;4985646;28;20077;-76
2023/11/25 07:15:14;;;;;;;1.55;0.40;;;5.00;91.20;;;;;;4987116;28;20038;-75
2023/11/25 07:17:40;;;;;;;0.70;0.20;;;4.90;91.30;;;;;;4986600;28;20045;-75
2023/11/25 07:20:11;;;;;;;2.38;0.20;;;4.90;91.40;;;;;;4987311;28;20409;-75
2023/11/25 07:22:38;;;;;;;0.98;0.25;;;4.90;91.20;;;;;;4987081;28;20038;-75
2023/11/25 07:25:05;;;;;;;1.15;0.20;;;4.90;91.00;;;;;;4988442;28;21495;-77
2023/11/25 07:27:31;;;;;;;0.43;0.10;;;4.90;90.80;;;;;;4985825;28;20381;-76
2023/11/25 07:30:00;;;;;;;0.15;0.15;;;4.90;90.40;;;;;;4987364;28;20092;-77
2023/11/25 07:32:27;;;;;;;1.15;0.30;;;5.00;90.60;;;;;;4988111;28;21035;-75
2023/11/25 07:34:52;;;;;;;0.47;0.10;;;5.10;91.60;;;;;;4985999;28;20065;-76
2023/11/25 07:37:18;;;;;;;1.52;0.45;;;5.00;90.20;;;;;;4986857;28;20018;-77
2023/11/25 07:39:44;;;;;;;1.45;0.52;;;5.00;90.20;;;;;;4987724;28;20622;-76
2023/11/25 07:42:10;;;;;;;0.75;0.30;;;4.90;90.00;;;;;;4987294;28;20040;-75
2023/11/25 07:44:36;;;;;;;1.40;0.10;;;4.90;90.00;;;;;;4985124;28;20054;-76
2023/11/25 07:47:02;;;;;;;0.52;0.10;;;4.90;87.00;;;;;;4986728;28;20049;-76
2023/11/25 07:49:29;;;;;;;0.57;0.10;;;5.00;86.40;;;;;;4986428;28;20122;-76
2023/11/25 07:51:55;;;;;;;2.05;0.20;;;4.90;86.80;;;;;;4987233;28;20621;-75
2023/11/25 07:54:21;;;;;;;1.48;0.30;;;5.00;85.80;;;;;;4987997;28;20077;-76
2023/11/25 07:56:50;;;;;;;1.30;0.60;;;5.00;85.70;;;;;;4986341;28;20472;-76
2023/11/25 07:59:15;;;;;;;1.35;0.50;;;4.80;86.20;;;;;;4986093;28;20033;-75
2023/11/25 08:01:41;;;;;;;1.70;0.68;;;4.80;86.60;;;;;;4986835;28;20468;-77
2023/11/25 08:04:06;;;;;;;5.25;2.60;;;4.80;86.40;;;;;;4991131;28;20085;-77
2023/11/25 08:06:32;;;;;;;2.70;1.00;;;4.70;86.50;;;;;;4991339;28;20041;-77
2023/11/25 08:08:58;;;;;;;3.08;1.00;;;4.80;84.80;;;;;;4986774;28;20065;-79
2023/11/25 08:11:25;;;;;;;2.85;1.05;;;4.80;85.00;;;;;;4992329;28;20117;-78
2023/11/25 08:13:51;;;;;;;5.22;1.75;;;4.70;86.70;;;;;;4996646;28;20080;-78
2023/11/25 08:16:20;;;;;;;3.53;1.65;;;4.70;85.50;;;;;;4998813;28;20029;-78
2023/11/25 08:18:47;;;;;;;2.90;0.63;;;4.70;85.90;;;;;;4997391;28;20530;-78
2023/11/25 08:21:13;;;;;;;2.42;0.40;;;4.60;85.60;;;;;;4997519;28;20480;-79
2023/11/25 08:23:39;;;;;;;0.65;0.35;;;4.60;84.50;;;;;;4999170;28;20546;-78
2023/11/25 08:26:05;;;;;;;6.63;1.00;;;4.70;85.00;;;;;;4998896;28;20074;-79
2023/11/25 08:28:31;;;;;;;3.03;0.40;;;4.70;85.30;;;;;;4998471;28;20168;-78
2023/11/25 08:30:57;;;;;;;0.10;0.10;;;4.70;84.80;;;;;;4997576;28;20045;-78
2023/11/25 08:33:25;;;;;;;2.83;0.20;;;4.60;85.60;;;;;;4997830;28;20037;-79
2023/11/25 08:35:50;;;;;;;0.82;0.30;;;4.60;85.40;;;;;;4998128;28;20052;-78
2023/11/25 08:38:16;;;;;;;1.17;0.38;;;4.70;86.50;;;;;;4998889;28;20037;-78
2023/11/25 08:40:42;;;;;;;8.48;1.10;;;4.70;86.40;;;;;;4996985;28;20673;-78
2023/11/25 08:43:13;;;;;;;1.33;0.47;;;4.60;86.20;;;;;;4998807;28;20052;-78
2023/11/25 08:45:39;;;;;;;0.68;0.40;;;4.70;85.50;;;;;;4998501;28;20076;-79
2023/11/25 08:48:08;;;;;;;1.10;0.30;;;4.70;85.50;;;;;;4997556;28;21143;-79
2023/11/25 08:50:33;;;;;;;0.50;0.20;;;4.70;84.60;;;;;;4998225;28;20713;-78
2023/11/25 08:53:02;;;;;;;2.13;1.42;;;4.70;85.50;;;;;;4993830;28;20125;-78
2023/11/25 08:55:27;;;;;;;1.45;0.88;;;4.60;85.60;;;;;;4993358;28;20046;-79
2023/11/25 08:57:53;;;;;;;0.80;0.60;;;4.60;86.50;;;;;;4994271;28;20034;-78
2023/11/25 09:00:19;;;;;;;1.48;0.50;;;4.60;85.80;;;;;;4995788;28;20034;-78
2023/11/25 09:02:48;;;;;;;5.55;0.77;;;4.50;87.00;;;;;;4998469;28;20033;-78
2023/11/25 09:05:15;;;;;;;0.40;0.15;;;4.50;86.20;;;;;;4996721;28;20061;-80
2023/11/25 09:07:43;;;;;;;1.13;0.40;;;4.50;87.70;;;;;;4994051;28;20038;-78
2023/11/25 09:10:10;;;;;;;4.07;0.40;;;4.50;87.20;;;;;;4994216;28;20647;-77
2023/11/25 09:12:36;;;;;;;0.82;0.30;;;4.90;88.10;;;;;;4993214;28;20034;-78
2023/11/25 09:15:08;;;;;;;0.75;0.20;;;5.00;90.00;;;;;;4992082;28;20036;-79
2023/11/25 09:17:38;;;;;;;0.68;0.20;;;4.60;85.80;;;;;;4993791;28;20068;-79
2023/11/25 09:20:16;;;;;;;0.57;0.20;;;4.60;83.10;;;;;;4994009;28;20034;-79
2023/11/25 09:22:42;;;;;;;1.17;0.20;;;4.70;80.90;;;;;;4993155;28;20034;-78
2023/11/25 09:25:10;;;;;;;0.98;0.22;;;4.70;80.80;;;;;;4993330;28;20639;-79
2023/11/25 09:27:36;;;;;;;0.47;0.10;;;5.10;75.90;;;;;;4994773;28;20034;-79
2023/11/25 09:30:02;;;;;;;0.32;0.13;;;5.30;76.00;;;;;;4993362;28;20038;-79
2023/11/25 09:32:28;;;;;;;1.65;0.13;;;5.30;74.90;;;;;;4992892;28;20030;-79
2023/11/25 09:34:55;;;;;;;0.52;0.20;;;5.10;77.40;;;;;;4993341;28;20046;-79
2023/11/25 09:37:21;;;;;;;0.45;0.20;;;5.20;74.40;;;;;;4993280;28;20696;-79
2023/11/25 09:39:47;;;;;;;0.00;0.00;;;5.30;74.60;;;;;;4991498;28;20677;-79
2023/11/25 09:42:13;;;;;;;0.38;0.10;;;5.40;73.20;;;;;;4994127;28;20022;-79
2023/11/25 09:44:40;;;;;;;0.57;0.20;;;5.40;72.90;;;;;;4993898;28;20415;-79
2023/11/25 09:47:06;;;;;;;1.70;0.30;;;5.50;72.70;;;;;;4992740;28;20088;-79
2023/11/25 09:49:32;;;;;;;0.60;0.25;;;5.50;71.90;;;;;;4993037;28;20038;-79
2023/11/25 09:52:04;;;;;;;1.30;0.20;;;5.70;71.90;;;;;;4992864;28;20048;-79
2023/11/25 09:54:31;;;;;;;1.08;0.20;;;5.60;72.80;;;;;;4992956;28;20717;-79
2023/11/25 09:56:58;;;;;;;0.70;0.30;;;5.60;72.00;;;;;;4994065;28;20806;-80
2023/11/25 09:59:26;;;;;;;0.90;0.20;;;5.80;70.60;;;;;;4993064;28;20045;-80
2023/11/25 10:01:52;;;;;;;1.75;0.20;;;5.60;72.90;;;;;;4992920;28;20073;-79
2023/11/25 10:04:19;;;;;;;1.38;0.20;;;5.80;69.70;;;;;;4993690;28;20168;-80
2023/11/25 10:06:48;;;;;;;2.25;0.10;;;5.70;70.30;;;;;;4992643;28;20049;-80
2023/11/25 10:09:15;;;;;;;0.60;0.17;;;6.00;68.20;;;;;;4995260;28;20136;-79
2023/11/25 10:11:44;;;;;;;0.55;0.17;;;6.10;68.40;;;;;;4996534;28;20038;-80
2023/11/25 10:14:14;;;;;;;1.17;0.20;;;5.90;69.80;;;;;;4996617;28;20040;-79
2023/11/25 10:16:43;;;;;;;0.38;0.20;;;5.80;69.50;;;;;;4996845;28;20037;-79
2023/11/25 10:19:29;;;;;;;0.63;0.22;;;5.90;69.30;;;;;;4997086;28;20061;-79
2023/11/25 10:21:57;;;;;;;1.17;0.38;;;6.10;68.90;;;;;;4996664;28;20042;-80
2023/11/25 10:24:23;;;;;;;0.45;0.20;;;6.30;68.20;;;;;;4997281;28;20057;-79
2023/11/25 10:26:50;;;;;;;0.57;0.20;;;6.50;66.00;;;;;;4995627;28;20542;-78
2023/11/25 10:29:19;;;;;;;0.45;0.20;;;6.60;65.20;;;;;;4996173;28;20160;-79
2023/11/25 10:31:45;;;;;;;0.20;0.05;;;6.80;65.80;;;;;;4996472;28;20030;-79
2023/11/25 10:34:11;;;;;;;1.27;0.10;;;6.80;65.60;;;;;;4996335;28;20097;-79
2023/11/25 10:36:39;;;;;;;1.95;0.40;;;6.90;64.90;;;;;;4996491;28;20121;-79
2023/11/25 10:39:08;;;;;;;0.00;0.00;;;6.90;64.20;;;;;;4996539;28;20034;-79
2023/11/25 10:41:37;;;;;;;0.28;0.13;;;7.00;64.40;;;;;;4996712;28;20029;-79
2023/11/25 10:44:05;;;;;;;0.98;0.30;;;7.00;65.50;;;;;;4997308;28;20514;-79
2023/11/25 10:46:44;;;;;;;0.85;0.13;;;7.00;63.30;;;;;;4996114;28;20044;-80
2023/11/25 10:49:09;;;;;;;0.35;0.10;;;7.00;65.40;;;;;;4997291;28;20103;-79
2023/11/25 10:51:39;;;;;;;0.57;0.15;;;7.10;62.80;;;;;;4996693;28;20045;-79
2023/11/25 10:54:09;;;;;;;1.80;0.10;;;7.10;64.70;;;;;;4996487;28;20105;-79
2023/11/25 10:56:36;;;;;;;1.52;0.17;;;7.20;63.10;;;;;;4996817;28;20033;-80
2023/11/25 10:59:03;;;;;;;0.17;0.10;;;7.20;63.70;;;;;;4996838;28;21311;-79
2023/11/25 11:01:31;;;;;;;0.32;0.03;;;7.10;63.70;;;;;;4996690;28;20424;-79
2023/11/25 11:03:59;;;;;;;1.58;0.75;;;7.20;61.20;;;;;;4995214;28;20100;-80
2023/11/25 11:06:29;;;;;;;0.90;0.15;;;7.40;63.20;;;;;;4995791;28;20041;-80
2023/11/25 11:08:56;;;;;;;0.90;0.22;;;7.50;61.90;;;;;;4994095;28;20041;-80
2023/11/25 11:11:46;;;;;;;0.38;0.10;;;7.50;61.60;;;;;;4991035;28;20034;-79
2023/11/25 11:14:12;;;;;;;0.82;0.10;;;7.40;62.40;;;;;;4992116;28;20124;-79
2023/11/25 11:17:09;;;;;;;0.88;0.32;;;7.50;62.10;;;;;;4991731;28;20037;-79
2023/11/25 11:19:40;;;;;;;0.25;0.10;;;7.70;62.20;;;;;;4992158;28;20049;-79
2023/11/25 11:22:07;;;;;;;0.95;0.20;;;7.60;60.90;;;;;;4991579;28;20092;-80
2023/11/25 11:24:51;;;;;;;0.00;0.00;;;7.60;61.60;;;;;;4992317;28;20550;-79
2023/11/25 11:27:22;;;;;;;0.63;0.10;;;7.80;61.20;;;;;;4992233;28;20454;-79
2023/11/25 11:30:15;;;;;;;0.52;0.15;;;8.10;62.00;;;;;;4991137;28;21252;-79
2023/11/25 11:32:42;;;;;;;1.35;0.65;;;8.00;62.70;;;;;;4982128;28;20046;-79
2023/11/25 11:35:08;;;;;;;0.00;0.00;;;7.90;60.50;;;;;;4991167;28;20716;-79
2023/11/25 11:37:39;;;;;;;0.20;0.10;;;7.90;60.80;;;;;;4991397;28;20083;-79
2023/11/25 11:40:06;;;;;;;0.00;0.00;;;7.90;56.60;;;;;;4992450;28;20053;-79
2023/11/25 11:42:34;;;;;;;0.52;0.15;;;7.70;57.00;;;;;;4990978;28;20040;-79
2023/11/25 11:45:26;;;;;;;1.60;0.20;;;7.90;57.60;;;;;;4990433;28;20046;-79
2023/11/25 11:48:02;;;;;;;0.22;0.10;;;8.00;58.20;;;;;;4995080;28;20061;-79
2023/11/25 11:50:32;;;;;;;0.15;0.10;;;8.00;59.20;;;;;;4995500;28;20038;-79
2023/11/25 11:53:01;;;;;;;1.48;0.43;;;8.00;58.40;;;;;;4995083;28;20049;-79
2023/11/25 11:55:43;;;;;;;0.35;0.13;;;8.20;58.80;;;;;;4995860;28;20124;-79
2023/11/25 11:58:16;;;;;;;0.85;0.30;;;8.30;58.30;;;;;;4996180;28;20365;-80
2023/11/25 12:01:09;;;;;;;0.32;0.10;;;8.10;56.40;;;;;;4995388;28;20557;-80
2023/11/25 12:03:36;;;;;;;0.35;0.10;;;8.20;57.00;;;;;;4995003;28;20124;-79
2023/11/25 12:06:03;;;;;;;0.47;0.10;;;8.30;58.90;;;;;;4995098;28;20525;-79
2023/11/25 12:08:30;;;;;;;0.65;0.20;;;8.70;58.40;;;;;;4995527;28;20385;-79
2023/11/25 12:10:56;;;;;;;0.28;0.20;;;8.70;58.20;;;;;;4995191;28;20127;-79
2023/11/25 12:13:27;;;;;;;1.30;0.30;;;8.50;55.60;;;;;;4995742;28;20037;-80
2023/11/25 12:15:53;;;;;;;0.50;0.10;;;8.30;56.50;;;;;;4994526;28;20029;-80
2023/11/25 12:18:20;;;;;;;1.77;0.10;;;8.40;55.90;;;;;;4996144;28;20064;-80
2023/11/25 12:20:46;;;;;;;0.25;0.10;;;8.20;54.20;;;;;;4995069;28;20157;-79
2023/11/25 12:23:12;;;;;;;0.95;0.30;;;8.10;55.00;;;;;;4993291;28;20112;-80
2023/11/25 12:25:39;;;;;;;1.25;0.30;;;8.30;55.70;;;;;;4991792;28;20038;-79
2023/11/25 12:28:09;;;;;;;0.55;0.20;;;8.40;56.20;;;;;;4992071;28;20766;-80
2023/11/25 12:30:39;;;;;;;1.52;0.60;;;8.40;56.00;;;;;;4990657;28;20049;-79
2023/11/25 12:33:06;;;;;;;1.90;0.20;;;8.30;57.10;;;;;;4991474;28;20129;-79
2023/11/25 12:35:34;;;;;;;2.08;0.30;;;8.30;55.90;;;;;;4990848;28;20104;-79
2023/11/25 12:38:01;;;;;;;0.80;0.25;;;8.40;56.90;;;;;;4991244;28;20734;-79
2023/11/25 12:40:28;;;;;;;0.45;0.13;;;8.40;55.40;;;;;;4992691;28;20511;-80
2023/11/25 12:42:54;;;;;;;0.10;0.05;;;8.30;53.60;;;;;;4991228;28;20030;-79
2023/11/25 12:45:36;;;;;;;0.00;0.00;;;8.20;53.40;;;;;;4991434;28;20037;-79
2023/11/25 12:48:05;;;;;;;0.20;0.10;;;8.30;54.20;;;;;;4992825;28;20041;-79
2023/11/25 12:50:32;;;;;;;0.28;0.25;;;8.30;55.00;;;;;;4993760;28;20395;-80
2023/11/25 12:53:06;;;;;;;1.10;0.20;;;8.40;54.30;;;;;;4993696;28;20038;-80
2023/11/25 12:55:43;;;;;;;0.85;0.30;;;8.40;54.70;;;;;;4992688;28;20038;-79
2023/11/25 12:58:15;;;;;;;0.13;0.05;;;8.50;55.60;;;;;;4993312;28;20042;-79